createdAt,value
2022-10-19T00:02:20.369Z,11.00
2022-10-19T00:07:23.194Z,11.00
2022-10-19T00:12:27.200Z,10.90
2022-10-19T00:17:30.449Z,10.90
2022-10-19T00:22:33.164Z,10.90
2022-10-19T00:27:37.488Z,11.00
2022-10-19T00:32:45.698Z,10.90
2022-10-19T00:37:48.518Z,10.90
2022-10-19T00:42:57.200Z,10.90
2022-10-19T00:47:59.659Z,10.80
2022-10-19T00:53:02.750Z,10.60
2022-10-19T00:58:07.027Z,10.40
2022-10-19T01:03:11.580Z,10.10
2022-10-19T01:08:17.239Z,10.00
2022-10-19T01:13:34.382Z,10.00
2022-10-19T01:18:43.906Z,10.00
2022-10-19T01:24:13.803Z,9.90
2022-10-19T01:29:29.035Z,9.90
2022-10-19T01:34:40.555Z,9.60
2022-10-19T01:39:50.622Z,9.40
2022-10-19T01:44:56.878Z,9.30
2022-10-19T01:50:07.635Z,9.30
2022-10-19T01:55:14.395Z,9.30
2022-10-19T02:00:18.903Z,9.20
2022-10-19T02:05:28.767Z,8.90
2022-10-19T02:10:33.263Z,8.80
2022-10-19T02:15:38.701Z,8.80
2022-10-19T02:20:42.653Z,8.90
2022-10-19T02:25:45.251Z,9.00
2022-10-19T02:30:51.881Z,9.20
2022-10-19T02:35:56.917Z,9.30
2022-10-19T02:41:09.830Z,9.40
2022-10-19T02:46:25.389Z,9.40
2022-10-19T02:51:34.165Z,9.50
2022-10-19T02:56:48.141Z,9.70
2022-10-19T03:02:00.881Z,9.90
2022-10-19T03:07:10.257Z,10.10
2022-10-19T03:12:14.722Z,10.40
2022-10-19T03:17:19.318Z,10.50
2022-10-19T03:22:27.834Z,10.60
2022-10-19T03:27:30.087Z,10.70
2022-10-19T03:32:32.948Z,10.80
2022-10-19T03:37:37.592Z,10.70
2022-10-19T03:42:39.892Z,10.70
2022-10-19T03:47:42.060Z,10.60
2022-10-19T03:52:45.859Z,10.60
2022-10-19T03:57:50.763Z,10.60
2022-10-19T04:02:56.335Z,10.50
2022-10-19T04:08:03.150Z,10.50
2022-10-19T04:13:05.595Z,10.50
2022-10-19T04:18:08.446Z,10.40
2022-10-19T11:36:04.118Z,13.90
2022-10-19T11:41:25.494Z,14.00
2022-10-19T11:46:37.174Z,14.00
2022-10-19T11:51:50.037Z,14.00
2022-10-19T11:57:03.560Z,14.00
2022-10-19T12:02:27.735Z,14.20
2022-10-19T12:07:44.725Z,14.00
2022-10-19T12:12:49.344Z,14.10
2022-10-19T12:28:32.134Z,14.00
2022-10-19T12:33:47.647Z,14.00
2022-10-19T12:39:00.625Z,14.00
2022-10-19T12:44:21.513Z,14.00
2022-10-19T12:50:30.090Z,14.10
2022-10-19T12:55:48.140Z,14.20
2022-10-19T13:01:03.221Z,14.10
2022-10-19T13:06:12.862Z,14.20
2022-10-19T13:11:27.327Z,14.20
2022-10-19T13:16:57.818Z,14.30
2022-10-19T13:27:27.640Z,14.50
2022-10-19T13:32:44.099Z,14.60
2022-10-19T13:37:45.939Z,14.70
2022-10-19T13:42:58.793Z,14.80
2022-10-19T13:48:14.842Z,14.70
2022-10-19T13:53:35.701Z,14.70
2022-10-19T14:21:06.227Z,14.90
2022-10-19T14:26:17.307Z,14.90
2022-10-19T14:31:23.306Z,14.80
2022-10-19T14:36:35.640Z,14.70
2022-10-19T14:47:19.892Z,14.40
2022-10-19T14:57:48.852Z,14.30
2022-10-19T15:03:04.841Z,14.40
2022-10-19T15:08:10.484Z,14.30
2022-10-19T15:13:22.686Z,14.40
2022-10-19T15:18:47.753Z,14.20
2022-10-19T15:23:50.299Z,14.10
2022-10-19T15:28:53.206Z,14.10
2022-10-19T15:33:57.520Z,14.00
2022-10-19T15:39:18.160Z,14.00
2022-10-19T15:44:33.245Z,14.00
2022-10-19T15:49:53.380Z,14.10
2022-10-19T15:54:58.635Z,14.00
2022-10-19T16:00:01.488Z,14.00
2022-10-19T16:05:03.325Z,13.90
2022-10-19T16:10:08.039Z,13.90
2022-10-19T16:15:12.407Z,13.90
2022-10-19T16:20:14.771Z,13.80
2022-10-19T16:25:18.483Z,13.70
2022-10-19T16:30:20.334Z,13.50
2022-10-19T18:18:04.352Z,10.80
2022-10-19T18:23:16.861Z,10.70
2022-10-19T18:28:19.059Z,10.70
2022-10-19T18:33:20.915Z,10.60
2022-10-19T18:44:46.702Z,10.50
2022-10-19T19:00:43.320Z,10.30
2022-10-19T20:05:36.373Z,9.40
2022-10-19T20:11:03.143Z,9.30
2022-10-19T21:05:25.224Z,10.30
2022-10-19T21:28:21.849Z,9.90
2022-10-19T21:38:49.548Z,9.80
2022-10-19T21:49:55.968Z,9.60
2022-10-19T21:55:17.185Z,9.60
2022-10-19T22:00:50.593Z,9.50
2022-10-19T22:06:24.783Z,9.50
2022-10-19T22:11:38.067Z,9.40
2022-10-19T22:16:59.851Z,9.40
2022-10-19T22:22:23.076Z,9.30
2022-10-19T22:27:42.519Z,9.30
2022-10-19T22:38:10.833Z,9.20
2022-10-19T22:43:21.960Z,9.20
2022-10-19T23:21:22.228Z,8.70
2022-10-19T23:26:36.526Z,8.80
2022-10-19T23:43:23.969Z,8.60
